Time,TemperatureF,DewpointF,PressureIn,WindDirection,WindDirectionDegrees,WindSpeedMPH,WindSpeedGustMPH,Humidity,HourlyPrecipIn,Conditions,Clouds,dailyrainin,SoftwareType,DateUTC
2017-08-23 00:00:00,67.1,58.5,30.00,NW,321,0.0,0.0,74,0.00,,,0.00,Wunderground v.1.15,2017-08-23 07:00:00,
2017-08-23 00:10:00,66.9,58.7,30.00,NW,321,0.0,0.0,75,0.00,,,0.00,Wunderground v.1.15,2017-08-23 07:10:00,
2017-08-23 00:20:00,66.8,58.6,30.00,NW,321,0.0,0.0,75,0.00,,,0.00,Wunderground v.1.15,2017-08-23 07:20:00,
2017-08-23 00:30:00,66.4,58.2,30.00,NW,321,0.0,0.0,75,0.00,,,0.00,Wunderground v.1.15,2017-08-23 07:30:00,
2017-08-23 00:40:00,66.1,58.3,30.00,NW,321,0.0,0.0,76,0.00,,,0.00,Wunderground v.1.15,2017-08-23 07:40:00,
2017-08-23 00:50:00,65.8,58.0,30.00,NW,321,0.0,0.0,76,0.00,,,0.00,Wunderground v.1.15,2017-08-23 07:50:00,
2017-08-23 01:00:00,65.3,57.9,29.99,NW,321,0.0,0.0,77,0.00,,,0.00,Wunderground v.1.15,2017-08-23 08:00:00,
2017-08-23 01:10:00,64.8,57.4,29.99,NW,321,0.0,0.0,77,0.00,,,0.00,Wunderground v.1.15,2017-08-23 08:10:00,
2017-08-23 01:20:00,64.3,57.3,29.99,NW,321,0.0,0.0,78,0.00,,,0.00,Wunderground v.1.15,2017-08-23 08:20:00,
2017-08-23 01:30:00,63.9,57.3,29.99,NW,321,0.0,0.0,79,0.00,,,0.00,Wunderground v.1.15,2017-08-23 08:30:00,
2017-08-23 01:40:00,63.9,57.6,29.99,NW,321,0.0,0.0,80,0.00,,,0.00,Wunderground v.1.15,2017-08-23 08:40:00,
2017-08-23 01:50:00,63.7,57.4,29.99,NW,321,0.0,0.0,80,0.00,,,0.00,Wunderground v.1.15,2017-08-23 08:50:00,
2017-08-23 02:00:00,63.4,57.5,29.99,NW,321,0.0,0.0,81,0.00,,,0.00,Wunderground v.1.15,2017-08-23 09:00:00,
2017-08-23 02:10:00,63.4,57.5,29.99,NW,321,0.0,0.0,81,0.00,,,0.00,Wunderground v.1.15,2017-08-23 09:10:00,
2017-08-23 02:20:00,63.2,57.3,29.99,NW,321,0.0,0.0,81,0.00,,,0.00,Wunderground v.1.15,2017-08-23 09:20:00,
2017-08-23 02:30:00,62.9,57.0,29.99,NW,321,0.0,0.0,81,0.00,,,0.00,Wunderground v.1.15,2017-08-23 09:30:00,
2017-08-23 02:40:00,62.6,57.0,29.99,NW,321,0.0,0.0,82,0.00,,,0.00,Wunderground v.1.15,2017-08-23 09:40:00,
2017-08-23 02:50:00,62.4,56.8,29.98,NW,321,0.0,0.0,82,0.00,,,0.00,Wunderground v.1.15,2017-08-23 09:50:00,
2017-08-23 03:00:00,62.4,56.8,29.98,NW,321,0.0,0.0,82,0.00,,,0.00,Wunderground v.1.15,2017-08-23 10:00:00,
2017-08-23 03:10:00,62.4,56.8,29.98,NW,321,0.0,0.0,82,0.00,,,0.00,Wunderground v.1.15,2017-08-23 10:10:00,
2017-08-23 03:20:00,62.3,57.4,29.98,NW,321,0.0,0.0,84,0.00,,,0.00,Wunderground v.1.15,2017-08-23 10:20:00,
2017-08-23 03:30:00,62.0,57.1,29.98,NW,321,0.0,0.0,84,0.00,,,0.00,Wunderground v.1.15,2017-08-23 10:30:00,
2017-08-23 03:40:00,61.8,56.9,29.98,NW,321,0.0,0.0,84,0.00,,,0.00,Wunderground v.1.15,2017-08-23 10:40:00,
2017-08-23 03:50:00,61.5,56.6,29.98,NW,321,0.0,0.0,84,0.00,,,0.00,Wunderground v.1.15,2017-08-23 10:50:00,
2017-08-23 04:00:00,61.0,56.5,29.98,NW,321,0.0,0.0,85,0.00,,,0.00,Wunderground v.1.15,2017-08-23 11:00:00,
2017-08-23 04:10:00,60.9,56.4,29.98,NW,321,0.0,0.0,85,0.00,,,0.00,Wunderground v.1.15,2017-08-23 11:10:00,
2017-08-23 04:20:00,60.5,56.3,29.98,NW,321,0.0,0.0,86,0.00,,,0.00,Wunderground v.1.15,2017-08-23 11:20:00,
2017-08-23 04:30:00,60.4,56.5,29.98,NW,321,0.0,0.0,87,0.00,,,0.00,Wunderground v.1.15,2017-08-23 11:30:00,
2017-08-23 04:40:00,60.2,56.3,29.98,NW,321,0.0,0.0,87,0.00,,,0.00,Wunderground v.1.15,2017-08-23 11:40:00,
2017-08-23 04:50:00,60.1,56.2,29.97,NW,321,0.0,0.0,87,0.00,,,0.00,Wunderground v.1.15,2017-08-23 11:50:00,
2017-08-23 05:00:00,59.9,56.3,29.97,NW,321,0.0,0.0,88,0.00,,,0.00,Wunderground v.1.15,2017-08-23 12:00:00,
2017-08-23 05:10:00,59.8,56.2,29.97,NW,321,0.0,0.0,88,0.00,,,0.00,Wunderground v.1.15,2017-08-23 12:10:00,
2017-08-23 05:20:00,59.6,56.0,29.97,NW,321,0.0,0.0,88,0.00,,,0.00,Wunderground v.1.15,2017-08-23 12:20:00,
2017-08-23 05:30:00,59.5,56.3,29.97,NW,321,0.0,0.0,89,0.00,,,0.00,Wunderground v.1.15,2017-08-23 12:30:00,
2017-08-23 05:40:00,59.3,56.1,29.97,NW,321,0.0,0.0,89,0.00,,,0.00,Wunderground v.1.15,2017-08-23 12:40:00,
2017-08-23 05:50:00,59.2,56.0,29.97,NW,321,0.0,0.0,89,0.00,,,0.00,Wunderground v.1.15,2017-08-23 12:50:00,
2017-08-23 06:00:00,58.9,55.7,29.98,NW,321,0.0,0.0,89,0.00,,,0.00,Wunderground v.1.15,2017-08-23 13:00:00,
2017-08-23 06:10:00,58.7,55.5,29.98,NW,321,0.0,0.0,89,0.00,,,0.00,Wunderground v.1.15,2017-08-23 13:10:00,
2017-08-23 06:20:00,58.6,55.4,29.98,NW,321,0.0,0.0,89,0.00,,,0.00,Wunderground v.1.15,2017-08-23 13:20:00,
2017-08-23 06:30:00,58.4,55.2,29.99,NW,321,0.0,0.0,89,0.00,,,0.00,Wunderground v.1.15,2017-08-23 13:30:00,
2017-08-23 06:40:00,58.4,55.5,29.99,NW,321,0.0,0.0,90,0.00,,,0.00,Wunderground v.1.15,2017-08-23 13:40:00,
2017-08-23 06:50:00,58.3,55.4,29.99,NW,321,0.0,0.0,90,0.00,,,0.00,Wunderground v.1.15,2017-08-23 13:50:00,
2017-08-23 07:00:00,58.1,55.2,29.99,NW,321,0.0,0.0,90,0.00,,,0.00,Wunderground v.1.15,2017-08-23 14:00:00,
2017-08-23 07:10:00,58.1,55.2,29.99,NW,321,0.0,0.0,90,0.00,,,0.00,Wunderground v.1.15,2017-08-23 14:10:00,
2017-08-23 07:20:00,58.3,55.4,29.99,NW,321,0.0,0.0,90,0.00,,,0.00,Wunderground v.1.15,2017-08-23 14:20:00,
2017-08-23 07:30:00,58.3,55.7,29.99,NW,321,0.0,0.0,91,0.00,,,0.00,Wunderground v.1.15,2017-08-23 14:30:00,
2017-08-23 07:40:00,58.6,56.0,29.99,NW,321,0.0,0.0,91,0.00,,,0.00,Wunderground v.1.15,2017-08-23 14:40:00,
2017-08-23 07:50:00,58.9,56.3,30.00,NW,321,0.0,0.0,91,0.00,,,0.00,Wunderground v.1.15,2017-08-23 14:50:00,
2017-08-23 08:00:00,59.5,56.9,30.00,NW,321,0.0,0.0,91,0.00,,,0.00,Wunderground v.1.15,2017-08-23 15:00:00,
2017-08-23 08:10:00,59.9,57.0,30.00,NW,321,0.0,0.0,90,0.00,,,0.00,Wunderground v.1.15,2017-08-23 15:10:00,
2017-08-23 08:20:00,60.5,56.9,30.00,NW,321,0.0,0.0,88,0.00,,,0.00,Wunderground v.1.15,2017-08-23 15:20:00,
2017-08-23 08:30:00,61.5,56.9,30.00,NW,321,0.0,0.0,85,0.00,,,0.00,Wunderground v.1.15,2017-08-23 15:30:00,
2017-08-23 08:40:00,62.1,56.9,30.00,NW,321,0.0,0.0,83,0.00,,,0.00,Wunderground v.1.15,2017-08-23 15:40:00,
2017-08-23 08:50:00,62.6,56.7,30.00,NW,321,0.0,1.0,81,0.00,,,0.00,Wunderground v.1.15,2017-08-23 15:50:00,
2017-08-23 09:00:00,63.4,57.1,30.00,NW,321,0.0,0.0,80,0.00,,,0.00,Wunderground v.1.15,2017-08-23 16:00:00,
2017-08-23 09:10:00,64.0,57.0,30.00,NW,321,0.0,0.0,78,0.00,,,0.00,Wunderground v.1.15,2017-08-23 16:10:00,